sensor_id;sensor_type;location;lat;lon;timestamp;P1;durP1;ratioP1;P2;durP2;ratioP2
49378;SDS011;35254;47.990;-1.608;2024-01-06T00:01:00;14.25;;;2.03;;
49378;SDS011;35254;47.990;-1.608;2024-01-06T00:03:25;2.88;;;1.60;;
49378;SDS011;35254;47.990;-1.608;2024-01-06T00:05:51;2.75;;;1.55;;
49378;SDS011;35254;47.990;-1.608;2024-01-06T00:08:16;5.60;;;1.77;;
49378;SDS011;35254;47.990;-1.608;2024-01-06T00:10:42;2.47;;;1.48;;
49378;SDS011;35254;47.990;-1.608;2024-01-06T00:13:07;2.30;;;2.10;;
49378;SDS011;35254;47.990;-1.608;2024-01-06T00:15:33;2.53;;;1.60;;
49378;SDS011;35254;47.990;-1.608;2024-01-06T00:17:59;6.90;;;1.80;;
49378;SDS011;35254;47.990;-1.608;2024-01-06T00:20:24;1.73;;;1.63;;
49378;SDS011;35254;47.990;-1.608;2024-01-06T00:22:50;2.65;;;1.73;;
49378;SDS011;35254;47.990;-1.608;2024-01-06T00:25:15;3.88;;;1.80;;
49378;SDS011;35254;47.990;-1.608;2024-01-06T00:27:41;4.70;;;2.17;;
49378;SDS011;35254;47.990;-1.608;2024-01-06T00:30:07;4.05;;;1.80;;
49378;SDS011;35254;47.990;-1.608;2024-01-06T00:32:33;2.55;;;1.90;;
49378;SDS011;35254;47.990;-1.608;2024-01-06T00:34:59;8.05;;;1.88;;
49378;SDS011;35254;47.990;-1.608;2024-01-06T00:37:24;3.67;;;1.77;;
49378;SDS011;35254;47.990;-1.608;2024-01-06T00:39:50;6.53;;;1.63;;
49378;SDS011;35254;47.990;-1.608;2024-01-06T00:42:15;6.95;;;2.08;;
49378;SDS011;35254;47.990;-1.608;2024-01-06T00:44:41;3.08;;;1.77;;
49378;SDS011;35254;47.990;-1.608;2024-01-06T00:47:07;2.78;;;1.70;;
49378;SDS011;35254;47.990;-1.608;2024-01-06T00:49:32;5.20;;;1.80;;
49378;SDS011;35254;47.990;-1.608;2024-01-06T00:51:58;3.70;;;1.60;;
49378;SDS011;35254;47.990;-1.608;2024-01-06T00:54:23;3.15;;;1.70;;
49378;SDS011;35254;47.990;-1.608;2024-01-06T00:56:49;4.53;;;1.75;;
49378;SDS011;35254;47.990;-1.608;2024-01-06T00:59:14;2.33;;;1.50;;
49378;SDS011;35254;47.990;-1.608;2024-01-06T01:01:40;5.13;;;1.58;;
49378;SDS011;35254;47.990;-1.608;2024-01-06T01:04:06;3.28;;;1.88;;
49378;SDS011;35254;47.990;-1.608;2024-01-06T01:06:31;4.55;;;2.53;;
49378;SDS011;35254;47.990;-1.608;2024-01-06T01:08:57;3.35;;;1.88;;
49378;SDS011;35254;47.990;-1.608;2024-01-06T01:11:22;3.42;;;1.80;;
49378;SDS011;35254;47.990;-1.608;2024-01-06T01:13:48;2.63;;;1.58;;
49378;SDS011;35254;47.990;-1.608;2024-01-06T01:16:14;2.72;;;1.98;;
49378;SDS011;35254;47.990;-1.608;2024-01-06T01:18:39;2.72;;;1.75;;
49378;SDS011;35254;47.990;-1.608;2024-01-06T01:21:05;3.08;;;1.77;;
49378;SDS011;35254;47.990;-1.608;2024-01-06T01:23:30;4.00;;;1.90;;
49378;SDS011;35254;47.990;-1.608;2024-01-06T01:25:56;2.42;;;1.48;;
49378;SDS011;35254;47.990;-1.608;2024-01-06T01:28:22;3.55;;;2.20;;
49378;SDS011;35254;47.990;-1.608;2024-01-06T01:30:47;7.30;;;2.17;;
49378;SDS011;35254;47.990;-1.608;2024-01-06T01:33:13;4.63;;;1.80;;
49378;SDS011;35254;47.990;-1.608;2024-01-06T01:35:38;2.42;;;1.65;;
49378;SDS011;35254;47.990;-1.608;2024-01-06T01:38:04;4.07;;;2.15;;
49378;SDS011;35254;47.990;-1.608;2024-01-06T01:40:29;4.93;;;2.33;;
49378;SDS011;35254;47.990;-1.608;2024-01-06T01:42:55;4.18;;;1.85;;
49378;SDS011;35254;47.990;-1.608;2024-01-06T01:45:21;3.83;;;2.03;;
49378;SDS011;35254;47.990;-1.608;2024-01-06T01:47:46;2.58;;;1.75;;
49378;SDS011;35254;47.990;-1.608;2024-01-06T01:50:12;2.55;;;1.77;;
49378;SDS011;35254;47.990;-1.608;2024-01-06T01:52:39;2.92;;;1.90;;
49378;SDS011;35254;47.990;-1.608;2024-01-06T01:55:06;3.25;;;1.77;;
49378;SDS011;35254;47.990;-1.608;2024-01-06T01:57:32;2.58;;;2.15;;
49378;SDS011;35254;47.990;-1.608;2024-01-06T01:59:58;4.03;;;1.70;;
49378;SDS011;35254;47.990;-1.608;2024-01-06T02:02:26;3.20;;;1.70;;
49378;SDS011;35254;47.990;-1.608;2024-01-06T02:04:53;4.05;;;2.08;;
49378;SDS011;35254;47.990;-1.608;2024-01-06T02:07:20;2.75;;;1.85;;
49378;SDS011;35254;47.990;-1.608;2024-01-06T02:09:45;6.07;;;2.05;;
49378;SDS011;35254;47.990;-1.608;2024-01-06T02:12:11;2.22;;;1.65;;
49378;SDS011;35254;47.990;-1.608;2024-01-06T02:14:36;2.78;;;1.85;;
49378;SDS011;35254;47.990;-1.608;2024-01-06T02:17:02;2.80;;;1.58;;
49378;SDS011;35254;47.990;-1.608;2024-01-06T02:19:28;1.95;;;1.38;;
49378;SDS011;35254;47.990;-1.608;2024-01-06T02:21:53;2.00;;;1.45;;
49378;SDS011;35254;47.990;-1.608;2024-01-06T02:24:19;1.92;;;1.42;;
49378;SDS011;35254;47.990;-1.608;2024-01-06T02:26:45;2.85;;;1.58;;
49378;SDS011;35254;47.990;-1.608;2024-01-06T02:29:11;2.42;;;1.20;;
49378;SDS011;35254;47.990;-1.608;2024-01-06T02:31:37;2.60;;;1.50;;
49378;SDS011;35254;47.990;-1.608;2024-01-06T02:34:03;1.85;;;1.38;;
49378;SDS011;35254;47.990;-1.608;2024-01-06T02:36:28;1.40;;;1.13;;
49378;SDS011;35254;47.990;-1.608;2024-01-06T02:38:54;1.63;;;1.30;;
49378;SDS011;35254;47.990;-1.608;2024-01-06T02:41:19;1.38;;;1.27;;
49378;SDS011;35254;47.990;-1.608;2024-01-06T02:43:46;3.20;;;1.50;;
49378;SDS011;35254;47.990;-1.608;2024-01-06T02:46:12;2.92;;;1.60;;
49378;SDS011;35254;47.990;-1.608;2024-01-06T02:48:37;1.20;;;1.10;;
49378;SDS011;35254;47.990;-1.608;2024-01-06T02:51:03;1.50;;;1.20;;
49378;SDS011;35254;47.990;-1.608;2024-01-06T02:53:29;5.10;;;1.17;;
49378;SDS011;35254;47.990;-1.608;2024-01-06T02:55:54;3.95;;;2.30;;
49378;SDS011;35254;47.990;-1.608;2024-01-06T02:58:20;3.50;;;1.25;;
49378;SDS011;35254;47.990;-1.608;2024-01-06T03:00:46;2.10;;;1.55;;
49378;SDS011;35254;47.990;-1.608;2024-01-06T03:03:11;1.40;;;1.30;;
49378;SDS011;35254;47.990;-1.608;2024-01-06T03:05:37;3.28;;;1.60;;
49378;SDS011;35254;47.990;-1.608;2024-01-06T03:08:03;1.65;;;1.02;;
49378;SDS011;35254;47.990;-1.608;2024-01-06T03:10:29;2.42;;;1.20;;
49378;SDS011;35254;47.990;-1.608;2024-01-06T03:12:55;1.77;;;1.30;;
49378;SDS011;35254;47.990;-1.608;2024-01-06T03:15:20;1.73;;;1.08;;
49378;SDS011;35254;47.990;-1.608;2024-01-06T03:17:47;2.28;;;1.35;;
49378;SDS011;35254;47.990;-1.608;2024-01-06T03:20:13;1.45;;;1.05;;
49378;SDS011;35254;47.990;-1.608;2024-01-06T03:22:38;1.42;;;1.00;;
49378;SDS011;35254;47.990;-1.608;2024-01-06T03:25:04;1.27;;;1.00;;
49378;SDS011;35254;47.990;-1.608;2024-01-06T03:27:31;1.40;;;1.08;;
49378;SDS011;35254;47.990;-1.608;2024-01-06T03:29:56;2.08;;;1.30;;
49378;SDS011;35254;47.990;-1.608;2024-01-06T03:32:22;3.67;;;0.90;;
49378;SDS011;35254;47.990;-1.608;2024-01-06T03:34:49;1.35;;;0.88;;
49378;SDS011;35254;47.990;-1.608;2024-01-06T03:37:15;1.23;;;0.90;;
49378;SDS011;35254;47.990;-1.608;2024-01-06T03:39:40;1.08;;;0.98;;
49378;SDS011;35254;47.990;-1.608;2024-01-06T03:42:06;0.95;;;0.90;;
49378;SDS011;35254;47.990;-1.608;2024-01-06T03:44:32;2.78;;;1.10;;
49378;SDS011;35254;47.990;-1.608;2024-01-06T03:46:58;1.23;;;0.93;;
49378;SDS011;35254;47.990;-1.608;2024-01-06T03:49:24;1.52;;;1.20;;
49378;SDS011;35254;47.990;-1.608;2024-01-06T03:51:50;1.10;;;0.90;;
49378;SDS011;35254;47.990;-1.608;2024-01-06T03:54:16;1.20;;;1.10;;
49378;SDS011;35254;47.990;-1.608;2024-01-06T03:56:42;1.38;;;0.90;;
49378;SDS011;35254;47.990;-1.608;2024-01-06T03:59:08;1.42;;;0.75;;
49378;SDS011;35254;47.990;-1.608;2024-01-06T04:01:34;1.08;;;0.98;;
49378;SDS011;35254;47.990;-1.608;2024-01-06T04:04:03;1.67;;;1.20;;
49378;SDS011;35254;47.990;-1.608;2024-01-06T04:06:29;1.30;;;1.20;;
49378;SDS011;35254;47.990;-1.608;2024-01-06T04:08:57;2.22;;;1.30;;
49378;SDS011;35254;47.990;-1.608;2024-01-06T04:11:22;1.65;;;1.00;;
49378;SDS011;35254;47.990;-1.608;2024-01-06T04:13:48;1.02;;;0.88;;
49378;SDS011;35254;47.990;-1.608;2024-01-06T04:16:14;1.50;;;0.93;;
49378;SDS011;35254;47.990;-1.608;2024-01-06T04:18:39;1.15;;;0.98;;
49378;SDS011;35254;47.990;-1.608;2024-01-06T04:21:05;1.23;;;0.63;;
49378;SDS011;35254;47.990;-1.608;2024-01-06T04:23:31;0.77;;;0.75;;
49378;SDS011;35254;47.990;-1.608;2024-01-06T04:25:56;2.25;;;1.30;;
49378;SDS011;35254;47.990;-1.608;2024-01-06T04:28:22;1.15;;;0.75;;
49378;SDS011;35254;47.990;-1.608;2024-01-06T04:30:49;1.25;;;0.80;;
49378;SDS011;35254;47.990;-1.608;2024-01-06T04:33:15;2.58;;;0.85;;
49378;SDS011;35254;47.990;-1.608;2024-01-06T04:35:41;0.82;;;0.70;;
49378;SDS011;35254;47.990;-1.608;2024-01-06T04:38:06;1.92;;;0.80;;
49378;SDS011;35254;47.990;-1.608;2024-01-06T04:40:32;2.10;;;0.82;;
49378;SDS011;35254;47.990;-1.608;2024-01-06T04:42:58;1.05;;;0.60;;
49378;SDS011;35254;47.990;-1.608;2024-01-06T04:45:23;2.63;;;1.98;;
49378;SDS011;35254;47.990;-1.608;2024-01-06T04:47:49;0.75;;;0.70;;
49378;SDS011;35254;47.990;-1.608;2024-01-06T04:50:15;1.55;;;1.00;;
49378;SDS011;35254;47.990;-1.608;2024-01-06T04:52:42;1.00;;;0.80;;
49378;SDS011;35254;47.990;-1.608;2024-01-06T04:55:09;1.08;;;0.70;;
49378;SDS011;35254;47.990;-1.608;2024-01-06T04:57:35;1.27;;;0.85;;
49378;SDS011;35254;47.990;-1.608;2024-01-06T05:00:01;0.57;;;0.57;;
49378;SDS011;35254;47.990;-1.608;2024-01-06T05:02:28;1.23;;;0.43;;
49378;SDS011;35254;47.990;-1.608;2024-01-06T05:04:54;1.38;;;0.90;;
49378;SDS011;35254;47.990;-1.608;2024-01-06T05:07:19;0.98;;;0.60;;
49378;SDS011;35254;47.990;-1.608;2024-01-06T05:09:45;2.10;;;0.98;;
49378;SDS011;35254;47.990;-1.608;2024-01-06T05:12:10;0.98;;;0.70;;
49378;SDS011;35254;47.990;-1.608;2024-01-06T05:14:36;1.35;;;0.85;;
49378;SDS011;35254;47.990;-1.608;2024-01-06T05:17:02;1.20;;;0.60;;
49378;SDS011;35254;47.990;-1.608;2024-01-06T05:19:27;0.45;;;0.45;;
49378;SDS011;35254;47.990;-1.608;2024-01-06T05:21:53;0.60;;;0.52;;
49378;SDS011;35254;47.990;-1.608;2024-01-06T05:24:19;1.55;;;0.60;;
49378;SDS011;35254;47.990;-1.608;2024-01-06T05:26:45;1.77;;;0.57;;
49378;SDS011;35254;47.990;-1.608;2024-01-06T05:29:10;0.43;;;0.43;;
49378;SDS011;35254;47.990;-1.608;2024-01-06T05:31:36;1.25;;;1.15;;
49378;SDS011;35254;47.990;-1.608;2024-01-06T05:34:01;1.95;;;0.60;;
49378;SDS011;35254;47.990;-1.608;2024-01-06T05:36:27;0.40;;;0.30;;
49378;SDS011;35254;47.990;-1.608;2024-01-06T05:38:53;0.52;;;0.30;;
49378;SDS011;35254;47.990;-1.608;2024-01-06T05:41:18;0.57;;;0.30;;
49378;SDS011;35254;47.990;-1.608;2024-01-06T05:43:44;0.60;;;0.50;;
49378;SDS011;35254;47.990;-1.608;2024-01-06T05:46:09;0.50;;;0.50;;
49378;SDS011;35254;47.990;-1.608;2024-01-06T05:48:35;1.02;;;0.70;;
49378;SDS011;35254;47.990;-1.608;2024-01-06T05:51:01;1.75;;;0.40;;
49378;SDS011;35254;47.990;-1.608;2024-01-06T05:53:30;4.47;;;0.73;;
49378;SDS011;35254;47.990;-1.608;2024-01-06T05:55:56;1.25;;;0.40;;
49378;SDS011;35254;47.990;-1.608;2024-01-06T05:58:22;0.55;;;0.55;;
49378;SDS011;35254;47.990;-1.608;2024-01-06T06:00:48;0.65;;;0.50;;
49378;SDS011;35254;47.990;-1.608;2024-01-06T06:03:13;0.50;;;0.50;;
49378;SDS011;35254;47.990;-1.608;2024-01-06T06:05:39;0.40;;;0.40;;
49378;SDS011;35254;47.990;-1.608;2024-01-06T06:08:05;0.30;;;0.30;;
49378;SDS011;35254;47.990;-1.608;2024-01-06T06:10:30;0.55;;;0.52;;
49378;SDS011;35254;47.990;-1.608;2024-01-06T06:13:06;0.50;;;0.50;;
49378;SDS011;35254;47.990;-1.608;2024-01-06T06:15:35;0.53;;;0.37;;
49378;SDS011;35254;47.990;-1.608;2024-01-06T06:18:01;0.75;;;0.63;;
49378;SDS011;35254;47.990;-1.608;2024-01-06T06:20:27;1.33;;;0.60;;
49378;SDS011;35254;47.990;-1.608;2024-01-06T06:22:52;0.80;;;0.70;;
49378;SDS011;35254;47.990;-1.608;2024-01-06T06:25:18;0.60;;;0.60;;
49378;SDS011;35254;47.990;-1.608;2024-01-06T06:27:43;0.45;;;0.40;;
49378;SDS011;35254;47.990;-1.608;2024-01-06T06:30:09;0.68;;;0.60;;
49378;SDS011;35254;47.990;-1.608;2024-01-06T06:32:35;0.43;;;0.43;;
49378;SDS011;35254;47.990;-1.608;2024-01-06T06:35:01;0.32;;;0.32;;
49378;SDS011;35254;47.990;-1.608;2024-01-06T06:37:26;1.65;;;0.55;;
49378;SDS011;35254;47.990;-1.608;2024-01-06T06:39:52;1.52;;;0.55;;
49378;SDS011;35254;47.990;-1.608;2024-01-06T06:42:18;1.02;;;0.40;;
49378;SDS011;35254;47.990;-1.608;2024-01-06T06:44:43;0.95;;;0.43;;
49378;SDS011;35254;47.990;-1.608;2024-01-06T06:47:09;0.88;;;0.20;;
49378;SDS011;35254;47.990;-1.608;2024-01-06T06:49:34;0.60;;;0.40;;
49378;SDS011;35254;47.990;-1.608;2024-01-06T06:52:00;0.40;;;0.30;;
49378;SDS011;35254;47.990;-1.608;2024-01-06T06:54:27;0.30;;;0.30;;
49378;SDS011;35254;47.990;-1.608;2024-01-06T06:56:53;0.35;;;0.35;;
49378;SDS011;35254;47.990;-1.608;2024-01-06T06:59:19;0.45;;;0.40;;
49378;SDS011;35254;47.990;-1.608;2024-01-06T07:01:45;0.50;;;0.30;;
49378;SDS011;35254;47.990;-1.608;2024-01-06T07:04:10;0.77;;;0.40;;
49378;SDS011;35254;47.990;-1.608;2024-01-06T07:06:36;0.65;;;0.40;;
49378;SDS011;35254;47.990;-1.608;2024-01-06T07:09:01;0.98;;;0.70;;
49378;SDS011;35254;47.990;-1.608;2024-01-06T07:11:28;0.25;;;0.22;;
49378;SDS011;35254;47.990;-1.608;2024-01-06T07:13:53;0.50;;;0.38;;
49378;SDS011;35254;47.990;-1.608;2024-01-06T07:16:19;0.25;;;0.25;;
49378;SDS011;35254;47.990;-1.608;2024-01-06T07:18:45;0.65;;;0.50;;
49378;SDS011;35254;47.990;-1.608;2024-01-06T07:21:11;0.20;;;0.20;;
49378;SDS011;35254;47.990;-1.608;2024-01-06T07:23:37;0.60;;;0.40;;
49378;SDS011;35254;47.990;-1.608;2024-01-06T07:26:03;0.52;;;0.30;;
49378;SDS011;35254;47.990;-1.608;2024-01-06T07:28:28;0.45;;;0.28;;
49378;SDS011;35254;47.990;-1.608;2024-01-06T07:30:54;0.60;;;0.45;;
49378;SDS011;35254;47.990;-1.608;2024-01-06T07:33:20;0.68;;;0.40;;
49378;SDS011;35254;47.990;-1.608;2024-01-06T07:35:46;0.20;;;0.20;;
49378;SDS011;35254;47.990;-1.608;2024-01-06T07:38:12;0.20;;;0.20;;
49378;SDS011;35254;47.990;-1.608;2024-01-06T07:40:38;0.55;;;0.35;;
49378;SDS011;35254;47.990;-1.608;2024-01-06T07:43:04;0.40;;;0.30;;
49378;SDS011;35254;47.990;-1.608;2024-01-06T07:45:30;0.30;;;0.30;;
49378;SDS011;35254;47.990;-1.608;2024-01-06T07:47:56;0.50;;;0.30;;
49378;SDS011;35254;47.990;-1.608;2024-01-06T07:50:22;0.73;;;0.60;;
49378;SDS011;35254;47.990;-1.608;2024-01-06T07:52:48;0.30;;;0.25;;
49378;SDS011;35254;47.990;-1.608;2024-01-06T07:55:14;1.50;;;0.55;;
49378;SDS011;35254;47.990;-1.608;2024-01-06T07:57:39;0.38;;;0.38;;
49378;SDS011;35254;47.990;-1.608;2024-01-06T08:00:05;0.40;;;0.30;;
49378;SDS011;35254;47.990;-1.608;2024-01-06T08:02:31;0.80;;;0.40;;
49378;SDS011;35254;47.990;-1.608;2024-01-06T08:04:57;0.40;;;0.40;;
49378;SDS011;35254;47.990;-1.608;2024-01-06T08:07:23;0.88;;;0.85;;
49378;SDS011;35254;47.990;-1.608;2024-01-06T08:09:49;0.68;;;0.50;;
49378;SDS011;35254;47.990;-1.608;2024-01-06T08:12:15;0.32;;;0.32;;
49378;SDS011;35254;47.990;-1.608;2024-01-06T08:14:40;1.35;;;0.55;;
49378;SDS011;35254;47.990;-1.608;2024-01-06T08:17:06;2.00;;;0.80;;
49378;SDS011;35254;47.990;-1.608;2024-01-06T08:19:32;4.50;;;0.65;;
49378;SDS011;35254;47.990;-1.608;2024-01-06T08:21:58;0.57;;;0.38;;
49378;SDS011;35254;47.990;-1.608;2024-01-06T08:24:24;0.45;;;0.40;;
49378;SDS011;35254;47.990;-1.608;2024-01-06T08:26:50;0.85;;;0.68;;
49378;SDS011;35254;47.990;-1.608;2024-01-06T08:29:16;3.40;;;0.50;;
49378;SDS011;35254;47.990;-1.608;2024-01-06T08:31:44;1.00;;;0.55;;
49378;SDS011;35254;47.990;-1.608;2024-01-06T08:34:10;0.38;;;0.38;;
49378;SDS011;35254;47.990;-1.608;2024-01-06T08:36:35;0.47;;;0.47;;
49378;SDS011;35254;47.990;-1.608;2024-01-06T08:39:01;1.90;;;1.25;;
49378;SDS011;35254;47.990;-1.608;2024-01-06T08:41:27;0.75;;;0.60;;
49378;SDS011;35254;47.990;-1.608;2024-01-06T08:43:52;1.40;;;0.52;;
49378;SDS011;35254;47.990;-1.608;2024-01-06T08:46:19;0.65;;;0.47;;
49378;SDS011;35254;47.990;-1.608;2024-01-06T08:48:45;0.77;;;0.50;;
49378;SDS011;35254;47.990;-1.608;2024-01-06T08:51:10;0.63;;;0.52;;
49378;SDS011;35254;47.990;-1.608;2024-01-06T08:53:36;0.50;;;0.50;;
49378;SDS011;35254;47.990;-1.608;2024-01-06T08:56:02;3.00;;;0.80;;
49378;SDS011;35254;47.990;-1.608;2024-01-06T08:58:27;0.57;;;0.55;;
49378;SDS011;35254;47.990;-1.608;2024-01-06T09:00:53;1.23;;;0.57;;
49378;SDS011;35254;47.990;-1.608;2024-01-06T09:03:19;2.40;;;0.68;;
49378;SDS011;35254;47.990;-1.608;2024-01-06T09:05:52;3.38;;;1.90;;
49378;SDS011;35254;47.990;-1.608;2024-01-06T09:08:20;0.30;;;0.30;;
49378;SDS011;35254;47.990;-1.608;2024-01-06T09:10:46;0.98;;;0.65;;
49378;SDS011;35254;47.990;-1.608;2024-01-06T09:13:13;1.23;;;0.65;;
49378;SDS011;35254;47.990;-1.608;2024-01-06T09:15:38;1.55;;;0.52;;
49378;SDS011;35254;47.990;-1.608;2024-01-06T09:18:04;2.53;;;1.00;;
49378;SDS011;35254;47.990;-1.608;2024-01-06T09:20:30;3.30;;;0.90;;
49378;SDS011;35254;47.990;-1.608;2024-01-06T09:22:55;1.10;;;1.00;;
49378;SDS011;35254;47.990;-1.608;2024-01-06T09:25:21;0.52;;;0.40;;
49378;SDS011;35254;47.990;-1.608;2024-01-06T09:27:49;0.68;;;0.52;;
49378;SDS011;35254;47.990;-1.608;2024-01-06T09:30:16;0.95;;;0.82;;
49378;SDS011;35254;47.990;-1.608;2024-01-06T09:32:41;1.15;;;0.60;;
49378;SDS011;35254;47.990;-1.608;2024-01-06T09:35:07;0.82;;;0.73;;
49378;SDS011;35254;47.990;-1.608;2024-01-06T09:37:33;1.42;;;1.30;;
49378;SDS011;35254;47.990;-1.608;2024-01-06T09:39:58;0.43;;;0.43;;
49378;SDS011;35254;47.990;-1.608;2024-01-06T09:42:24;1.30;;;0.75;;
49378;SDS011;35254;47.990;-1.608;2024-01-06T09:44:50;0.57;;;0.47;;
49378;SDS011;35254;47.990;-1.608;2024-01-06T09:47:16;0.80;;;0.50;;
49378;SDS011;35254;47.990;-1.608;2024-01-06T09:49:46;0.70;;;0.70;;
49378;SDS011;35254;47.990;-1.608;2024-01-06T09:54:47;5.85;;;1.25;;
49378;SDS011;35254;47.990;-1.608;2024-01-06T09:57:18;1.15;;;0.52;;
49378;SDS011;35254;47.990;-1.608;2024-01-06T09:59:46;2.25;;;0.70;;
49378;SDS011;35254;47.990;-1.608;2024-01-06T10:02:15;0.95;;;0.65;;
49378;SDS011;35254;47.990;-1.608;2024-01-06T10:04:42;4.30;;;0.60;;
49378;SDS011;35254;47.990;-1.608;2024-01-06T10:07:08;1.02;;;0.60;;
49378;SDS011;35254;47.990;-1.608;2024-01-06T10:09:37;0.88;;;0.47;;
49378;SDS011;35254;47.990;-1.608;2024-01-06T10:12:03;3.53;;;0.75;;
49378;SDS011;35254;47.990;-1.608;2024-01-06T10:14:29;3.65;;;0.65;;
49378;SDS011;35254;47.990;-1.608;2024-01-06T10:16:55;3.78;;;0.52;;
49378;SDS011;35254;47.990;-1.608;2024-01-06T10:19:21;2.65;;;0.63;;
49378;SDS011;35254;47.990;-1.608;2024-01-06T10:21:48;4.30;;;1.70;;
49378;SDS011;35254;47.990;-1.608;2024-01-06T10:24:14;3.55;;;0.45;;
49378;SDS011;35254;47.990;-1.608;2024-01-06T10:26:39;0.90;;;0.65;;
49378;SDS011;35254;47.990;-1.608;2024-01-06T10:29:05;4.28;;;0.73;;
49378;SDS011;35254;47.990;-1.608;2024-01-06T10:31:31;2.20;;;0.68;;
49378;SDS011;35254;47.990;-1.608;2024-01-06T10:33:57;1.40;;;0.50;;
49378;SDS011;35254;47.990;-1.608;2024-01-06T10:36:23;0.70;;;0.70;;
49378;SDS011;35254;47.990;-1.608;2024-01-06T10:38:52;0.75;;;0.50;;
49378;SDS011;35254;47.990;-1.608;2024-01-06T10:41:17;1.50;;;0.40;;
49378;SDS011;35254;47.990;-1.608;2024-01-06T10:43:45;1.48;;;0.70;;
49378;SDS011;35254;47.990;-1.608;2024-01-06T10:46:12;1.52;;;0.88;;
49378;SDS011;35254;47.990;-1.608;2024-01-06T10:48:40;1.52;;;0.60;;
49378;SDS011;35254;47.990;-1.608;2024-01-06T10:51:11;0.65;;;0.50;;
49378;SDS011;35254;47.990;-1.608;2024-01-06T10:53:42;3.85;;;0.75;;
49378;SDS011;35254;47.990;-1.608;2024-01-06T10:56:08;3.17;;;0.82;;
49378;SDS011;35254;47.990;-1.608;2024-01-06T10:58:39;4.75;;;0.73;;
49378;SDS011;35254;47.990;-1.608;2024-01-06T11:01:10;2.03;;;0.73;;
49378;SDS011;35254;47.990;-1.608;2024-01-06T11:03:36;1.48;;;0.70;;
49378;SDS011;35254;47.990;-1.608;2024-01-06T11:06:05;2.00;;;0.65;;
49378;SDS011;35254;47.990;-1.608;2024-01-06T11:08:33;0.88;;;0.60;;
49378;SDS011;35254;47.990;-1.608;2024-01-06T11:11:04;1.58;;;0.70;;
49378;SDS011;35254;47.990;-1.608;2024-01-06T11:13:30;0.50;;;0.50;;
49378;SDS011;35254;47.990;-1.608;2024-01-06T11:15:56;1.30;;;0.85;;
49378;SDS011;35254;47.990;-1.608;2024-01-06T11:18:34;2.45;;;0.77;;
49378;SDS011;35254;47.990;-1.608;2024-01-06T11:23:42;3.38;;;1.20;;
49378;SDS011;35254;47.990;-1.608;2024-01-06T11:26:08;0.68;;;0.52;;
49378;SDS011;35254;47.990;-1.608;2024-01-06T11:28:46;0.73;;;0.73;;
49378;SDS011;35254;47.990;-1.608;2024-01-06T11:31:12;2.80;;;0.73;;
49378;SDS011;35254;47.990;-1.608;2024-01-06T11:33:44;2.50;;;0.95;;
49378;SDS011;35254;47.990;-1.608;2024-01-06T11:36:14;8.25;;;1.08;;
49378;SDS011;35254;47.990;-1.608;2024-01-06T11:38:40;1.40;;;0.88;;
49378;SDS011;35254;47.990;-1.608;2024-01-06T11:41:10;0.90;;;0.60;;
49378;SDS011;35254;47.990;-1.608;2024-01-06T11:43:55;1.77;;;0.63;;
49378;SDS011;35254;47.990;-1.608;2024-01-06T11:46:21;1.48;;;0.68;;
49378;SDS011;35254;47.990;-1.608;2024-01-06T11:48:46;1.33;;;0.85;;
49378;SDS011;35254;47.990;-1.608;2024-01-06T11:51:16;2.28;;;0.70;;
49378;SDS011;35254;47.990;-1.608;2024-01-06T11:53:43;0.63;;;0.43;;
49378;SDS011;35254;47.990;-1.608;2024-01-06T11:56:09;2.25;;;0.73;;
49378;SDS011;35254;47.990;-1.608;2024-01-06T11:58:35;2.92;;;0.80;;
49378;SDS011;35254;47.990;-1.608;2024-01-06T12:01:04;6.80;;;0.80;;
49378;SDS011;35254;47.990;-1.608;2024-01-06T12:03:29;0.77;;;0.63;;
49378;SDS011;35254;47.990;-1.608;2024-01-06T12:05:59;1.98;;;0.75;;
49378;SDS011;35254;47.990;-1.608;2024-01-06T12:08:26;1.27;;;0.80;;
49378;SDS011;35254;47.990;-1.608;2024-01-06T12:11:01;1.17;;;0.68;;
49378;SDS011;35254;47.990;-1.608;2024-01-06T12:13:27;0.77;;;0.77;;
49378;SDS011;35254;47.990;-1.608;2024-01-06T12:15:53;1.52;;;0.77;;
49378;SDS011;35254;47.990;-1.608;2024-01-06T12:18:20;1.92;;;0.73;;
49378;SDS011;35254;47.990;-1.608;2024-01-06T12:20:46;0.90;;;0.40;;
49378;SDS011;35254;47.990;-1.608;2024-01-06T12:23:11;1.73;;;0.73;;
49378;SDS011;35254;47.990;-1.608;2024-01-06T12:25:37;5.57;;;1.00;;
49378;SDS011;35254;47.990;-1.608;2024-01-06T12:28:05;2.25;;;0.65;;
49378;SDS011;35254;47.990;-1.608;2024-01-06T12:30:30;1.10;;;0.70;;
49378;SDS011;35254;47.990;-1.608;2024-01-06T12:32:59;4.32;;;1.48;;
49378;SDS011;35254;47.990;-1.608;2024-01-06T12:35:26;2.85;;;0.60;;
49378;SDS011;35254;47.990;-1.608;2024-01-06T12:37:52;3.78;;;0.45;;
49378;SDS011;35254;47.990;-1.608;2024-01-06T12:40:17;2.10;;;0.80;;
49378;SDS011;35254;47.990;-1.608;2024-01-06T12:42:44;2.90;;;0.47;;
49378;SDS011;35254;47.990;-1.608;2024-01-06T12:45:11;7.38;;;1.42;;
49378;SDS011;35254;47.990;-1.608;2024-01-06T12:47:37;1.55;;;0.60;;
49378;SDS011;35254;47.990;-1.608;2024-01-06T12:50:03;4.43;;;1.05;;
49378;SDS011;35254;47.990;-1.608;2024-01-06T12:52:29;6.10;;;0.93;;
49378;SDS011;35254;47.990;-1.608;2024-01-06T12:54:55;3.15;;;0.68;;
49378;SDS011;35254;47.990;-1.608;2024-01-06T12:57:21;10.48;;;1.10;;
49378;SDS011;35254;47.990;-1.608;2024-01-06T12:59:46;4.00;;;0.90;;
49378;SDS011;35254;47.990;-1.608;2024-01-06T13:02:12;1.00;;;0.70;;
49378;SDS011;35254;47.990;-1.608;2024-01-06T13:04:38;6.32;;;0.95;;
49378;SDS011;35254;47.990;-1.608;2024-01-06T13:07:04;1.13;;;0.50;;
49378;SDS011;35254;47.990;-1.608;2024-01-06T13:09:29;0.55;;;0.55;;
49378;SDS011;35254;47.990;-1.608;2024-01-06T13:11:55;6.00;;;0.95;;
49378;SDS011;35254;47.990;-1.608;2024-01-06T13:14:25;24.15;;;2.85;;
49378;SDS011;35254;47.990;-1.608;2024-01-06T13:16:55;8.15;;;0.95;;
49378;SDS011;35254;47.990;-1.608;2024-01-06T13:19:21;1.17;;;0.63;;
49378;SDS011;35254;47.990;-1.608;2024-01-06T13:21:48;4.15;;;1.08;;
49378;SDS011;35254;47.990;-1.608;2024-01-06T13:24:14;5.00;;;1.10;;
49378;SDS011;35254;47.990;-1.608;2024-01-06T13:26:39;2.28;;;0.98;;
49378;SDS011;35254;47.990;-1.608;2024-01-06T13:29:05;8.60;;;1.50;;
49378;SDS011;35254;47.990;-1.608;2024-01-06T13:31:31;1.23;;;0.50;;
49378;SDS011;35254;47.990;-1.608;2024-01-06T13:33:57;1.80;;;0.55;;
49378;SDS011;35254;47.990;-1.608;2024-01-06T13:36:23;2.65;;;0.68;;
49378;SDS011;35254;47.990;-1.608;2024-01-06T13:38:49;6.78;;;0.80;;
49378;SDS011;35254;47.990;-1.608;2024-01-06T13:41:15;6.85;;;0.73;;
49378;SDS011;35254;47.990;-1.608;2024-01-06T13:43:41;3.97;;;0.80;;
49378;SDS011;35254;47.990;-1.608;2024-01-06T13:46:07;1.27;;;0.70;;
49378;SDS011;35254;47.990;-1.608;2024-01-06T13:48:32;1.48;;;0.70;;
49378;SDS011;35254;47.990;-1.608;2024-01-06T13:50:58;5.63;;;0.70;;
49378;SDS011;35254;47.990;-1.608;2024-01-06T13:53:24;7.65;;;0.93;;
49378;SDS011;35254;47.990;-1.608;2024-01-06T13:55:50;2.13;;;0.68;;
49378;SDS011;35254;47.990;-1.608;2024-01-06T13:58:16;3.80;;;0.43;;
49378;SDS011;35254;47.990;-1.608;2024-01-06T14:00:45;6.95;;;1.00;;
49378;SDS011;35254;47.990;-1.608;2024-01-06T14:03:11;1.25;;;0.73;;
49378;SDS011;35254;47.990;-1.608;2024-01-06T14:05:37;3.75;;;0.75;;
49378;SDS011;35254;47.990;-1.608;2024-01-06T14:08:03;1.20;;;0.65;;
49378;SDS011;35254;47.990;-1.608;2024-01-06T14:10:28;1.70;;;0.70;;
49378;SDS011;35254;47.990;-1.608;2024-01-06T14:12:56;3.25;;;0.98;;
49378;SDS011;35254;47.990;-1.608;2024-01-06T14:15:22;3.33;;;0.57;;
49378;SDS011;35254;47.990;-1.608;2024-01-06T14:17:47;4.53;;;0.75;;
49378;SDS011;35254;47.990;-1.608;2024-01-06T14:20:15;1.25;;;0.63;;
49378;SDS011;35254;47.990;-1.608;2024-01-06T14:22:43;3.00;;;0.60;;
49378;SDS011;35254;47.990;-1.608;2024-01-06T14:25:12;7.95;;;1.80;;
49378;SDS011;35254;47.990;-1.608;2024-01-06T14:27:38;3.97;;;0.95;;
49378;SDS011;35254;47.990;-1.608;2024-01-06T14:30:04;3.42;;;1.00;;
49378;SDS011;35254;47.990;-1.608;2024-01-06T14:32:32;0.85;;;0.73;;